sensor_id;sensor_type;location;lat;lon;timestamp;pressure;altitude;pressure_sealevel;temperature;humidity
69173;BME280;56280;49.662;8.408;2024-01-06T00:01:57;99549.41;;;6.28;100.00
69173;BME280;56280;49.662;8.408;2024-01-06T00:04:49;99544.63;;;6.22;100.00
69173;BME280;56280;49.662;8.408;2024-01-06T00:10:26;99430.91;;;5.34;100.00
69173;BME280;56280;49.662;8.408;2024-01-06T00:13:00;99476.97;;;5.64;100.00
69173;BME280;56280;49.662;8.408;2024-01-06T00:15:26;99441.22;;;5.37;100.00
69173;BME280;56280;49.662;8.408;2024-01-06T00:18:26;99497.69;;;5.57;100.00
69173;BME280;56280;49.662;8.408;2024-01-06T00:20:52;99563.38;;;5.94;100.00
69173;BME280;56280;49.662;8.408;2024-01-06T00:23:17;99562.41;;;5.84;100.00
69173;BME280;56280;49.662;8.408;2024-01-06T00:25:43;99574.56;;;5.98;100.00
69173;BME280;56280;49.662;8.408;2024-01-06T00:28:08;99567.56;;;5.85;100.00
69173;BME280;56280;49.662;8.408;2024-01-06T00:30:33;99545.16;;;5.80;100.00
69173;BME280;56280;49.662;8.408;2024-01-06T00:32:59;99561.59;;;5.95;100.00
69173;BME280;56280;49.662;8.408;2024-01-06T00:35:24;99541.78;;;5.78;100.00
69173;BME280;56280;49.662;8.408;2024-01-06T00:37:49;99570.13;;;5.98;100.00
69173;BME280;56280;49.662;8.408;2024-01-06T00:40:15;99558.22;;;5.81;100.00
69173;BME280;56280;49.662;8.408;2024-01-06T00:42:40;99581.66;;;5.97;100.00
69173;BME280;56280;49.662;8.408;2024-01-06T00:45:05;99569.13;;;5.88;100.00
69173;BME280;56280;49.662;8.408;2024-01-06T00:47:31;99576.22;;;5.88;100.00
69173;BME280;56280;49.662;8.408;2024-01-06T00:49:56;99579.22;;;5.94;100.00
69173;BME280;56280;49.662;8.408;2024-01-06T00:52:21;99545.28;;;5.78;100.00
69173;BME280;56280;49.662;8.408;2024-01-06T00:54:47;99590.88;;;6.03;100.00
69173;BME280;56280;49.662;8.408;2024-01-06T00:57:12;99580.31;;;6.03;100.00
69173;BME280;56280;49.662;8.408;2024-01-06T00:59:38;99589.94;;;6.15;100.00
69173;BME280;56280;49.662;8.408;2024-01-06T01:02:03;99570.03;;;6.23;100.00
69173;BME280;56280;49.662;8.408;2024-01-06T01:04:28;99569.09;;;6.35;100.00
69173;BME280;56280;49.662;8.408;2024-01-06T01:06:54;99583.09;;;6.47;100.00
69173;BME280;56280;49.662;8.408;2024-01-06T01:09:19;99577.81;;;6.47;100.00
69173;BME280;56280;49.662;8.408;2024-01-06T01:11:44;99589.47;;;6.67;100.00
69173;BME280;56280;49.662;8.408;2024-01-06T01:14:09;99582.75;;;6.63;100.00
69173;BME280;56280;49.662;8.408;2024-01-06T01:16:35;99586.97;;;6.54;100.00
69173;BME280;56280;49.662;8.408;2024-01-06T01:19:00;99601.69;;;6.68;100.00
69173;BME280;56280;49.662;8.408;2024-01-06T01:21:27;99593.53;;;6.71;100.00
69173;BME280;56280;49.662;8.408;2024-01-06T01:23:52;99606.00;;;6.80;100.00
69173;BME280;56280;49.662;8.408;2024-01-06T01:26:17;99578.06;;;6.66;100.00
69173;BME280;56280;49.662;8.408;2024-01-06T01:28:43;99605.28;;;6.89;100.00
69173;BME280;56280;49.662;8.408;2024-01-06T01:31:08;99614.63;;;6.93;100.00
69173;BME280;56280;49.662;8.408;2024-01-06T01:33:33;99614.34;;;7.08;100.00
69173;BME280;56280;49.662;8.408;2024-01-06T01:35:58;99597.81;;;6.94;100.00
69173;BME280;56280;49.662;8.408;2024-01-06T01:38:24;99618.72;;;6.98;100.00
69173;BME280;56280;49.662;8.408;2024-01-06T01:40:49;99617.47;;;7.13;100.00
69173;BME280;56280;49.662;8.408;2024-01-06T01:43:18;99615.69;;;7.14;100.00
69173;BME280;56280;49.662;8.408;2024-01-06T01:45:43;99594.44;;;7.04;100.00
69173;BME280;56280;49.662;8.408;2024-01-06T01:48:09;99596.47;;;7.00;100.00
69173;BME280;56280;49.662;8.408;2024-01-06T01:50:37;99594.22;;;7.07;100.00
69173;BME280;56280;49.662;8.408;2024-01-06T01:53:03;99585.44;;;7.06;100.00
69173;BME280;56280;49.662;8.408;2024-01-06T01:55:28;99601.03;;;7.09;100.00
69173;BME280;56280;49.662;8.408;2024-01-06T01:57:54;99610.06;;;7.07;100.00
69173;BME280;56280;49.662;8.408;2024-01-06T02:00:20;99615.44;;;7.17;100.00
69173;BME280;56280;49.662;8.408;2024-01-06T02:02:45;99598.50;;;7.08;100.00
69173;BME280;56280;49.662;8.408;2024-01-06T02:05:11;99584.25;;;6.99;100.00
69173;BME280;56280;49.662;8.408;2024-01-06T02:07:36;99595.66;;;7.00;100.00
69173;BME280;56280;49.662;8.408;2024-01-06T02:10:01;99609.56;;;7.02;100.00
69173;BME280;56280;49.662;8.408;2024-01-06T02:12:26;99603.72;;;6.87;100.00
69173;BME280;56280;49.662;8.408;2024-01-06T02:14:52;99599.25;;;6.99;100.00
69173;BME280;56280;49.662;8.408;2024-01-06T02:17:17;99601.16;;;6.97;100.00
69173;BME280;56280;49.662;8.408;2024-01-06T02:19:42;99562.69;;;6.83;100.00
69173;BME280;56280;49.662;8.408;2024-01-06T02:22:08;99610.75;;;7.09;100.00
69173;BME280;56280;49.662;8.408;2024-01-06T02:24:33;99588.47;;;6.79;100.00
69173;BME280;56280;49.662;8.408;2024-01-06T02:26:58;99590.88;;;6.71;100.00
69173;BME280;56280;49.662;8.408;2024-01-06T02:29:23;99620.41;;;6.76;100.00
69173;BME280;56280;49.662;8.408;2024-01-06T02:31:49;99612.22;;;6.90;100.00
69173;BME280;56280;49.662;8.408;2024-01-06T02:34:14;99615.34;;;6.96;100.00
69173;BME280;56280;49.662;8.408;2024-01-06T02:36:39;99583.19;;;6.79;100.00
69173;BME280;56280;49.662;8.408;2024-01-06T02:39:05;99602.75;;;6.88;100.00
69173;BME280;56280;49.662;8.408;2024-01-06T02:41:30;99629.72;;;7.14;100.00
69173;BME280;56280;49.662;8.408;2024-01-06T02:43:55;99627.47;;;6.98;100.00
69173;BME280;56280;49.662;8.408;2024-01-06T02:46:23;99620.03;;;6.81;100.00
69173;BME280;56280;49.662;8.408;2024-01-06T02:48:49;99626.41;;;6.89;100.00
69173;BME280;56280;49.662;8.408;2024-01-06T02:51:14;99629.03;;;7.01;100.00
69173;BME280;56280;49.662;8.408;2024-01-06T02:53:39;99597.84;;;6.83;100.00
69173;BME280;56280;49.662;8.408;2024-01-06T02:56:09;99633.94;;;7.17;100.00
69173;BME280;56280;49.662;8.408;2024-01-06T02:58:34;99632.66;;;7.32;100.00
69173;BME280;56280;49.662;8.408;2024-01-06T03:01:00;99632.09;;;7.28;100.00
69173;BME280;56280;49.662;8.408;2024-01-06T03:03:25;99615.91;;;7.22;100.00
69173;BME280;56280;49.662;8.408;2024-01-06T03:05:50;99611.44;;;7.22;100.00
69173;BME280;56280;49.662;8.408;2024-01-06T03:08:16;99628.25;;;7.33;100.00
69173;BME280;56280;49.662;8.408;2024-01-06T03:10:41;99621.84;;;7.35;100.00
69173;BME280;56280;49.662;8.408;2024-01-06T03:13:06;99620.69;;;7.28;100.00
69173;BME280;56280;49.662;8.408;2024-01-06T03:15:32;99633.50;;;7.44;100.00
69173;BME280;56280;49.662;8.408;2024-01-06T03:17:57;99620.06;;;7.24;100.00
69173;BME280;56280;49.662;8.408;2024-01-06T03:20:22;99627.88;;;7.26;100.00
69173;BME280;56280;49.662;8.408;2024-01-06T03:22:47;99630.59;;;7.36;100.00
69173;BME280;56280;49.662;8.408;2024-01-06T03:25:13;99640.06;;;7.49;100.00
69173;BME280;56280;49.662;8.408;2024-01-06T03:27:38;99626.41;;;7.44;100.00
69173;BME280;56280;49.662;8.408;2024-01-06T03:30:06;99642.84;;;7.48;100.00
69173;BME280;56280;49.662;8.408;2024-01-06T03:32:31;99656.03;;;7.48;100.00
69173;BME280;56280;49.662;8.408;2024-01-06T03:34:57;99654.16;;;7.27;100.00
69173;BME280;56280;49.662;8.408;2024-01-06T03:37:22;99647.00;;;7.18;100.00
69173;BME280;56280;49.662;8.408;2024-01-06T03:39:47;99656.94;;;7.26;100.00
69173;BME280;56280;49.662;8.408;2024-01-06T03:42:13;99668.03;;;7.20;100.00
69173;BME280;56280;49.662;8.408;2024-01-06T03:44:38;99661.03;;;7.30;100.00
69173;BME280;56280;49.662;8.408;2024-01-06T03:47:03;99675.53;;;7.36;100.00
69173;BME280;56280;49.662;8.408;2024-01-06T03:49:29;99644.38;;;7.18;100.00
69173;BME280;56280;49.662;8.408;2024-01-06T03:51:54;99657.22;;;7.00;100.00
69173;BME280;56280;49.662;8.408;2024-01-06T03:54:19;99661.69;;;6.88;100.00
69173;BME280;56280;49.662;8.408;2024-01-06T03:56:44;99638.88;;;6.87;100.00
69173;BME280;56280;49.662;8.408;2024-01-06T03:59:10;99654.00;;;6.97;100.00
69173;BME280;56280;49.662;8.408;2024-01-06T04:01:35;99652.31;;;6.96;100.00
69173;BME280;56280;49.662;8.408;2024-01-06T04:04:05;99670.19;;;6.92;100.00
69173;BME280;56280;49.662;8.408;2024-01-06T04:06:30;99675.00;;;6.87;100.00
69173;BME280;56280;49.662;8.408;2024-01-06T04:08:57;99655.09;;;6.83;100.00
69173;BME280;56280;49.662;8.408;2024-01-06T04:11:22;99661.44;;;6.91;100.00
69173;BME280;56280;49.662;8.408;2024-01-06T04:13:48;99660.97;;;6.98;100.00
69173;BME280;56280;49.662;8.408;2024-01-06T04:16:13;99665.53;;;6.96;100.00
69173;BME280;56280;49.662;8.408;2024-01-06T04:18:38;99686.63;;;7.18;100.00
69173;BME280;56280;49.662;8.408;2024-01-06T04:21:04;99677.25;;;7.14;100.00
69173;BME280;56280;49.662;8.408;2024-01-06T04:23:30;99667.19;;;6.85;100.00
69173;BME280;56280;49.662;8.408;2024-01-06T04:25:55;99666.59;;;7.04;100.00
69173;BME280;56280;49.662;8.408;2024-01-06T04:28:20;99660.84;;;6.88;100.00
69173;BME280;56280;49.662;8.408;2024-01-06T04:30:46;99649.06;;;7.03;100.00
69173;BME280;56280;49.662;8.408;2024-01-06T04:33:11;99660.34;;;7.17;100.00
69173;BME280;56280;49.662;8.408;2024-01-06T04:35:37;99655.66;;;7.20;100.00
69173;BME280;56280;49.662;8.408;2024-01-06T04:38:02;99670.78;;;7.18;100.00
69173;BME280;56280;49.662;8.408;2024-01-06T04:40:27;99671.13;;;7.25;100.00
69173;BME280;56280;49.662;8.408;2024-01-06T04:42:53;99643.38;;;7.19;100.00
69173;BME280;56280;49.662;8.408;2024-01-06T04:45:18;99658.44;;;7.51;100.00
69173;BME280;56280;49.662;8.408;2024-01-06T04:47:44;99641.13;;;7.47;100.00
69173;BME280;56280;49.662;8.408;2024-01-06T04:50:10;99644.28;;;7.52;100.00
69173;BME280;56280;49.662;8.408;2024-01-06T04:52:35;99658.03;;;7.67;100.00
69173;BME280;56280;49.662;8.408;2024-01-06T04:55:00;99654.94;;;7.62;100.00
69173;BME280;56280;49.662;8.408;2024-01-06T04:57:27;99648.94;;;7.48;100.00
69173;BME280;56280;49.662;8.408;2024-01-06T04:59:52;99654.47;;;7.57;100.00
69173;BME280;56280;49.662;8.408;2024-01-06T05:02:18;99655.09;;;7.49;100.00
69173;BME280;56280;49.662;8.408;2024-01-06T05:04:43;99667.56;;;7.47;100.00
69173;BME280;56280;49.662;8.408;2024-01-06T05:07:08;99646.00;;;7.30;100.00
69173;BME280;56280;49.662;8.408;2024-01-06T05:09:33;99656.78;;;7.39;100.00
69173;BME280;56280;49.662;8.408;2024-01-06T05:11:59;99665.31;;;7.42;100.00
69173;BME280;56280;49.662;8.408;2024-01-06T05:14:24;99644.34;;;7.29;100.00
69173;BME280;56280;49.662;8.408;2024-01-06T05:16:49;99661.34;;;7.48;100.00
69173;BME280;56280;49.662;8.408;2024-01-06T05:19:14;99660.38;;;7.49;100.00
69173;BME280;56280;49.662;8.408;2024-01-06T05:21:45;99675.72;;;7.66;100.00
69173;BME280;56280;49.662;8.408;2024-01-06T05:24:11;99637.66;;;7.46;100.00
69173;BME280;56280;49.662;8.408;2024-01-06T05:26:36;99644.28;;;7.52;100.00
69173;BME280;56280;49.662;8.408;2024-01-06T05:29:01;99670.34;;;7.57;100.00
69173;BME280;56280;49.662;8.408;2024-01-06T05:31:28;99687.81;;;7.69;100.00
69173;BME280;56280;49.662;8.408;2024-01-06T05:33:53;99677.41;;;7.56;100.00
69173;BME280;56280;49.662;8.408;2024-01-06T05:36:19;99695.50;;;7.72;100.00
69173;BME280;56280;49.662;8.408;2024-01-06T05:38:45;99687.44;;;7.74;100.00
69173;BME280;56280;49.662;8.408;2024-01-06T05:41:10;99688.16;;;7.76;100.00
69173;BME280;56280;49.662;8.408;2024-01-06T05:43:35;99689.97;;;7.75;100.00
69173;BME280;56280;49.662;8.408;2024-01-06T05:46:01;99688.94;;;7.66;100.00
69173;BME280;56280;49.662;8.408;2024-01-06T05:48:26;99688.94;;;7.66;100.00
69173;BME280;56280;49.662;8.408;2024-01-06T05:50:51;99679.91;;;7.58;100.00
69173;BME280;56280;49.662;8.408;2024-01-06T05:53:16;99702.16;;;7.66;100.00
69173;BME280;56280;49.662;8.408;2024-01-06T05:55:43;99705.53;;;7.57;100.00
69173;BME280;56280;49.662;8.408;2024-01-06T05:58:09;99716.31;;;7.65;100.00
69173;BME280;56280;49.662;8.408;2024-01-06T06:00:34;99711.97;;;7.64;100.00
69173;BME280;56280;49.662;8.408;2024-01-06T06:02:59;99699.16;;;7.48;100.00
69173;BME280;56280;49.662;8.408;2024-01-06T06:05:24;99699.78;;;7.52;100.00
69173;BME280;56280;49.662;8.408;2024-01-06T06:07:50;99710.09;;;7.55;100.00
69173;BME280;56280;49.662;8.408;2024-01-06T06:10:15;99700.78;;;7.28;100.00
69173;BME280;56280;49.662;8.408;2024-01-06T06:12:41;99697.16;;;7.41;100.00
69173;BME280;56280;49.662;8.408;2024-01-06T06:15:07;99726.78;;;7.56;100.00
69173;BME280;56280;49.662;8.408;2024-01-06T06:17:33;99714.66;;;7.53;100.00
69173;BME280;56280;49.662;8.408;2024-01-06T06:19:58;99705.78;;;7.43;100.00
69173;BME280;56280;49.662;8.408;2024-01-06T06:22:24;99708.72;;;6.94;100.00
69173;BME280;56280;49.662;8.408;2024-01-06T06:24:52;99718.22;;;7.08;100.00
69173;BME280;56280;49.662;8.408;2024-01-06T06:27:17;99719.75;;;7.22;100.00
69173;BME280;56280;49.662;8.408;2024-01-06T06:29:42;99715.91;;;7.38;100.00
69173;BME280;56280;49.662;8.408;2024-01-06T06:32:08;99738.22;;;7.45;100.00
69173;BME280;56280;49.662;8.408;2024-01-06T06:34:33;99704.88;;;7.21;100.00
69173;BME280;56280;49.662;8.408;2024-01-06T06:36:58;99732.22;;;7.43;100.00
69173;BME280;56280;49.662;8.408;2024-01-06T06:39:24;99728.13;;;7.39;100.00
69173;BME280;56280;49.662;8.408;2024-01-06T06:41:49;99727.28;;;7.49;100.00
69173;BME280;56280;49.662;8.408;2024-01-06T06:44:14;99721.53;;;7.44;100.00
69173;BME280;56280;49.662;8.408;2024-01-06T06:46:39;99736.91;;;7.51;100.00
69173;BME280;56280;49.662;8.408;2024-01-06T06:49:05;99754.28;;;7.64;100.00
69173;BME280;56280;49.662;8.408;2024-01-06T06:51:30;99753.09;;;7.69;100.00
69173;BME280;56280;49.662;8.408;2024-01-06T06:53:56;99754.78;;;7.58;100.00
69173;BME280;56280;49.662;8.408;2024-01-06T06:56:21;99770.13;;;7.64;100.00
69173;BME280;56280;49.662;8.408;2024-01-06T06:58:47;99750.59;;;7.56;100.00
69173;BME280;56280;49.662;8.408;2024-01-06T07:01:16;99736.16;;;7.48;100.00
69173;BME280;56280;49.662;8.408;2024-01-06T07:03:41;99773.66;;;7.65;100.00
69173;BME280;56280;49.662;8.408;2024-01-06T07:06:07;99774.72;;;7.62;100.00
69173;BME280;56280;49.662;8.408;2024-01-06T07:08:32;99791.66;;;7.71;100.00
69173;BME280;56280;49.662;8.408;2024-01-06T07:10:57;99784.59;;;7.60;100.00
69173;BME280;56280;49.662;8.408;2024-01-06T07:13:22;99799.72;;;7.70;100.00
69173;BME280;56280;49.662;8.408;2024-01-06T07:15:48;99772.81;;;7.53;100.00
69173;BME280;56280;49.662;8.408;2024-01-06T07:18:13;99782.06;;;7.47;100.00
69173;BME280;56280;49.662;8.408;2024-01-06T07:20:38;99799.97;;;7.55;100.00
69173;BME280;56280;49.662;8.408;2024-01-06T07:23:03;99787.25;;;7.49;100.00
69173;BME280;56280;49.662;8.408;2024-01-06T07:25:29;99804.41;;;7.55;100.00
69173;BME280;56280;49.662;8.408;2024-01-06T07:27:55;99809.22;;;7.61;100.00
69173;BME280;56280;49.662;8.408;2024-01-06T07:30:20;99825.06;;;7.61;100.00
69173;BME280;56280;49.662;8.408;2024-01-06T07:32:46;99811.00;;;7.60;100.00
69173;BME280;56280;49.662;8.408;2024-01-06T07:35:12;99825.75;;;7.74;100.00
69173;BME280;56280;49.662;8.408;2024-01-06T07:37:38;99811.59;;;7.64;100.00
69173;BME280;56280;49.662;8.408;2024-01-06T07:40:03;99831.59;;;7.45;100.00
69173;BME280;56280;49.662;8.408;2024-01-06T07:42:28;99834.47;;;7.42;100.00
69173;BME280;56280;49.662;8.408;2024-01-06T07:44:54;99829.88;;;7.44;100.00
69173;BME280;56280;49.662;8.408;2024-01-06T07:47:19;99817.75;;;7.19;100.00
69173;BME280;56280;49.662;8.408;2024-01-06T07:49:44;99854.16;;;7.38;100.00
69173;BME280;56280;49.662;8.408;2024-01-06T07:52:11;99822.56;;;7.25;100.00
69173;BME280;56280;49.662;8.408;2024-01-06T07:54:38;99823.50;;;7.24;100.00
69173;BME280;56280;49.662;8.408;2024-01-06T07:57:04;99863.41;;;7.44;100.00
69173;BME280;56280;49.662;8.408;2024-01-06T07:59:30;99854.50;;;7.45;100.00
69173;BME280;56280;49.662;8.408;2024-01-06T08:01:55;99855.38;;;7.45;100.00
69173;BME280;56280;49.662;8.408;2024-01-06T08:04:20;99864.38;;;7.54;100.00
69173;BME280;56280;49.662;8.408;2024-01-06T08:06:45;99875.53;;;7.69;100.00
69173;BME280;56280;49.662;8.408;2024-01-06T08:09:11;99855.38;;;7.57;100.00
69173;BME280;56280;49.662;8.408;2024-01-06T08:11:36;99866.28;;;7.63;100.00
69173;BME280;56280;49.662;8.408;2024-01-06T08:14:01;99870.00;;;7.61;100.00
69173;BME280;56280;49.662;8.408;2024-01-06T08:16:27;99835.28;;;7.54;100.00
69173;BME280;56280;49.662;8.408;2024-01-06T08:18:52;99862.78;;;7.63;100.00
69173;BME280;56280;49.662;8.408;2024-01-06T08:21:18;99873.84;;;7.79;100.00
69173;BME280;56280;49.662;8.408;2024-01-06T08:23:43;99864.47;;;7.75;100.00
69173;BME280;56280;49.662;8.408;2024-01-06T08:26:09;99880.91;;;7.90;100.00
69173;BME280;56280;49.662;8.408;2024-01-06T08:28:34;99884.53;;;7.89;100.00
69173;BME280;56280;49.662;8.408;2024-01-06T08:30:59;99881.78;;;7.91;100.00
69173;BME280;56280;49.662;8.408;2024-01-06T08:33:25;99878.91;;;7.94;100.00
69173;BME280;56280;49.662;8.408;2024-01-06T08:35:50;99889.81;;;8.00;100.00
69173;BME280;56280;49.662;8.408;2024-01-06T08:38:16;99886.69;;;8.07;100.00
69173;BME280;56280;49.662;8.408;2024-01-06T08:40:41;99878.78;;;7.95;100.00
69173;BME280;56280;49.662;8.408;2024-01-06T08:43:07;99865.91;;;7.91;100.00
69173;BME280;56280;49.662;8.408;2024-01-06T08:45:32;99883.06;;;8.08;100.00
69173;BME280;56280;49.662;8.408;2024-01-06T08:47:57;99875.50;;;8.03;100.00
69173;BME280;56280;49.662;8.408;2024-01-06T08:50:22;99897.84;;;8.10;100.00
69173;BME280;56280;49.662;8.408;2024-01-06T08:52:48;99884.75;;;8.09;100.00
69173;BME280;56280;49.662;8.408;2024-01-06T08:55:13;99901.66;;;8.29;100.00
69173;BME280;56280;49.662;8.408;2024-01-06T08:57:38;99902.63;;;8.28;100.00
69173;BME280;56280;49.662;8.408;2024-01-06T09:00:04;99897.19;;;8.40;100.00
69173;BME280;56280;49.662;8.408;2024-01-06T09:02:30;99893.34;;;8.45;100.00
69173;BME280;56280;49.662;8.408;2024-01-06T09:04:56;99920.00;;;8.64;100.00
69173;BME280;56280;49.662;8.408;2024-01-06T09:07:21;99896.03;;;8.66;100.00
69173;BME280;56280;49.662;8.408;2024-01-06T09:09:46;99918.94;;;8.88;100.00
69173;BME280;56280;49.662;8.408;2024-01-06T09:12:11;99912.75;;;8.78;100.00
69173;BME280;56280;49.662;8.408;2024-01-06T09:14:37;99904.84;;;8.66;100.00
69173;BME280;56280;49.662;8.408;2024-01-06T09:17:02;99916.34;;;8.76;100.00
69173;BME280;56280;49.662;8.408;2024-01-06T09:19:28;99908.06;;;8.70;100.00
69173;BME280;56280;49.662;8.408;2024-01-06T09:21:54;99926.09;;;8.76;100.00
69173;BME280;56280;49.662;8.408;2024-01-06T09:24:19;99928.53;;;8.68;100.00
69173;BME280;56280;49.662;8.408;2024-01-06T09:26:46;99932.16;;;8.67;100.00
69173;BME280;56280;49.662;8.408;2024-01-06T09:29:12;99935.78;;;8.87;100.00
69173;BME280;56280;49.662;8.408;2024-01-06T09:31:37;99920.81;;;8.76;100.00
69173;BME280;56280;49.662;8.408;2024-01-06T09:34:03;99921.38;;;8.80;100.00
69173;BME280;56280;49.662;8.408;2024-01-06T09:36:30;99922.94;;;8.82;100.00
69173;BME280;56280;49.662;8.408;2024-01-06T09:38:55;99936.28;;;8.92;100.00
69173;BME280;56280;49.662;8.408;2024-01-06T09:41:21;99908.72;;;8.83;100.00
69173;BME280;56280;49.662;8.408;2024-01-06T09:43:47;99934.78;;;8.99;100.00
69173;BME280;56280;49.662;8.408;2024-01-06T09:46:20;99950.44;;;9.02;100.00
69173;BME280;56280;49.662;8.408;2024-01-06T09:48:47;99946.88;;;8.92;100.00
69173;BME280;56280;49.662;8.408;2024-01-06T09:51:15;99956.16;;;8.86;100.00
69173;BME280;56280;49.662;8.408;2024-01-06T09:53:46;99966.38;;;8.91;100.00
69173;BME280;56280;49.662;8.408;2024-01-06T09:56:15;99953.16;;;8.80;100.00
69173;BME280;56280;49.662;8.408;2024-01-06T09:58:41;99960.50;;;8.87;100.00
69173;BME280;56280;49.662;8.408;2024-01-06T10:01:06;99961.31;;;8.88;100.00
69173;BME280;56280;49.662;8.408;2024-01-06T10:03:33;99934.88;;;8.76;100.00
69173;BME280;56280;49.662;8.408;2024-01-06T10:05:59;99954.81;;;8.92;100.00
69173;BME280;56280;49.662;8.408;2024-01-06T10:08:29;99963.97;;;8.88;100.00
69173;BME280;56280;49.662;8.408;2024-01-06T10:10:54;99969.97;;;8.90;100.00
69173;BME280;56280;49.662;8.408;2024-01-06T10:13:19;99971.19;;;8.97;100.00
69173;BME280;56280;49.662;8.408;2024-01-06T10:15:45;99978.13;;;8.98;100.00
69173;BME280;56280;49.662;8.408;2024-01-06T10:18:11;99971.91;;;8.88;100.00
69173;BME280;56280;49.662;8.408;2024-01-06T10:20:37;99939.50;;;8.63;100.00
69173;BME280;56280;49.662;8.408;2024-01-06T10:23:06;99951.56;;;8.88;100.00
69173;BME280;56280;49.662;8.408;2024-01-06T10:25:32;99924.78;;;8.70;100.00
69173;BME280;56280;49.662;8.408;2024-01-06T10:28:00;99965.91;;;8.86;100.00
69173;BME280;56280;49.662;8.408;2024-01-06T10:30:26;99974.56;;;8.88;100.00
69173;BME280;56280;49.662;8.408;2024-01-06T10:32:52;99967.22;;;8.91;100.00
69173;BME280;56280;49.662;8.408;2024-01-06T10:35:18;99961.41;;;8.98;100.00
69173;BME280;56280;49.662;8.408;2024-01-06T10:37:44;99933.75;;;8.90;100.00
69173;BME280;56280;49.662;8.408;2024-01-06T10:40:11;99966.28;;;9.13;100.00
69173;BME280;56280;49.662;8.408;2024-01-06T10:42:38;99926.38;;;8.94;100.00
69173;BME280;56280;49.662;8.408;2024-01-06T10:45:11;99951.94;;;9.16;100.00
69173;BME280;56280;49.662;8.408;2024-01-06T10:47:38;99966.78;;;9.28;100.00
69173;BME280;56280;49.662;8.408;2024-01-06T10:50:04;99949.16;;;9.18;100.00
69173;BME280;56280;49.662;8.408;2024-01-06T10:52:30;99942.88;;;9.19;100.00
69173;BME280;56280;49.662;8.408;2024-01-06T10:54:55;99962.06;;;9.32;100.00
69173;BME280;56280;49.662;8.408;2024-01-06T10:57:21;99951.34;;;9.34;100.00
69173;BME280;56280;49.662;8.408;2024-01-06T10:59:50;99948.75;;;9.43;100.00
69173;BME280;56280;49.662;8.408;2024-01-06T11:02:16;99942.16;;;9.59;100.00
69173;BME280;56280;49.662;8.408;2024-01-06T11:04:48;99937.84;;;9.67;100.00
69173;BME280;56280;49.662;8.408;2024-01-06T11:07:15;99936.63;;;9.72;100.00
69173;BME280;56280;49.662;8.408;2024-01-06T11:09:55;99938.31;;;9.73;100.00
69173;BME280;56280;49.662;8.408;2024-01-06T11:12:21;99948.66;;;9.76;100.00
69173;BME280;56280;49.662;8.408;2024-01-06T11:14:47;99940.97;;;9.73;100.00
69173;BME280;56280;49.662;8.408;2024-01-06T11:17:12;99928.53;;;9.73;100.00
69173;BME280;56280;49.662;8.408;2024-01-06T11:24:53;99918.94;;;9.82;100.00
69173;BME280;56280;49.662;8.408;2024-01-06T11:27:20;99944.72;;;10.01;100.00
69173;BME280;56280;49.662;8.408;2024-01-06T11:29:46;99924.88;;;9.95;100.00
69173;BME280;56280;49.662;8.408;2024-01-06T11:32:34;99932.16;;;10.03;100.00
69173;BME280;56280;49.662;8.408;2024-01-06T11:35:09;99928.09;;;9.99;100.00
69173;BME280;56280;49.662;8.408;2024-01-06T11:40:25;99939.91;;;10.26;100.00
69173;BME280;56280;49.662;8.408;2024-01-06T11:42:57;99934.28;;;10.19;100.00
69173;BME280;56280;49.662;8.408;2024-01-06T11:45:25;99932.66;;;10.28;100.00
69173;BME280;56280;49.662;8.408;2024-01-06T11:47:54;99930.88;;;10.38;100.00
69173;BME280;56280;49.662;8.408;2024-01-06T11:50:20;99921.25;;;10.06;100.00
69173;BME280;56280;49.662;8.408;2024-01-06T11:52:46;99931.09;;;10.25;100.00
69173;BME280;56280;49.662;8.408;2024-01-06T11:55:11;99928.84;;;10.20;100.00
69173;BME280;56280;49.662;8.408;2024-01-06T11:57:37;99914.63;;;10.31;100.00
69173;BME280;56280;49.662;8.408;2024-01-06T12:00:03;99927.94;;;10.41;100.00
69173;BME280;56280;49.662;8.408;2024-01-06T12:02:29;99911.06;;;10.42;100.00
69173;BME280;56280;49.662;8.408;2024-01-06T12:04:54;99903.34;;;10.39;100.00
69173;BME280;56280;49.662;8.408;2024-01-06T12:07:21;99897.22;;;10.38;100.00
69173;BME280;56280;49.662;8.408;2024-01-06T12:09:50;99923.50;;;10.51;100.00
69173;BME280;56280;49.662;8.408;2024-01-06T12:12:17;99933.28;;;10.51;100.00
69173;BME280;56280;49.662;8.408;2024-01-06T12:14:42;99924.19;;;10.44;100.00
69173;BME280;56280;49.662;8.408;2024-01-06T12:17:09;99929.78;;;10.50;100.00
69173;BME280;56280;49.662;8.408;2024-01-06T12:19:34;99925.88;;;10.54;100.00
69173;BME280;56280;49.662;8.408;2024-01-06T12:21:59;99918.03;;;10.43;100.00
69173;BME280;56280;49.662;8.408;2024-01-06T12:24:27;99912.69;;;10.33;100.00
69173;BME280;56280;49.662;8.408;2024-01-06T12:26:55;99912.00;;;10.41;100.00
69173;BME280;56280;49.662;8.408;2024-01-06T12:29:21;99900.44;;;10.42;100.00
69173;BME280;56280;49.662;8.408;2024-01-06T12:31:47;99916.91;;;10.46;100.00
69173;BME280;56280;49.662;8.408;2024-01-06T12:34:12;99916.66;;;10.49;100.00
69173;BME280;56280;49.662;8.408;2024-01-06T12:36:38;99912.44;;;10.46;100.00
69173;BME280;56280;49.662;8.408;2024-01-06T12:39:04;99917.22;;;10.62;100.00
69173;BME280;56280;49.662;8.408;2024-01-06T12:41:30;99910.06;;;10.43;100.00
69173;BME280;56280;49.662;8.408;2024-01-06T12:43:56;99923.78;;;10.48;100.00
69173;BME280;56280;49.662;8.408;2024-01-06T12:46:21;99923.81;;;10.17;100.00
69173;BME280;56280;49.662;8.408;2024-01-06T12:48:47;99921.44;;;10.14;100.00
69173;BME280;56280;49.662;8.408;2024-01-06T12:51:12;99910.97;;;10.13;100.00
69173;BME280;56280;49.662;8.408;2024-01-06T12:53:37;99919.78;;;10.23;100.00
69173;BME280;56280;49.662;8.408;2024-01-06T12:56:03;99914.88;;;10.18;100.00
69173;BME280;56280;49.662;8.408;2024-01-06T12:58:28;99928.53;;;10.14;100.00
69173;BME280;56280;49.662;8.408;2024-01-06T13:00:53;99930.75;;;9.99;100.00
69173;BME280;56280;49.662;8.408;2024-01-06T13:03:20;99916.50;;;9.69;100.00
69173;BME280;56280;49.662;8.408;2024-01-06T13:05:45;99921.31;;;9.54;100.00